aviador You're here:

LFJL Decoded Metar

METZ in FRANCE
Report Time2018-06-17 23:00:00
UTC Time2018-06-17 23:32:21
Flight Rules vfr VFR
Wind200° at 03 kt
W.Decomp.*RWY 22: 2.8 kt HW 1 kt LCW
W.Rank200° ranks 4
Current wind is below 200° avg. (8.7)
Visibility9999 m
Phenomena:N/A
Clouds:N/A
Expected CloudBase > 1,600 ft AGL from Temp-Dew spread
CeilingNone
Temp14°C (ISA +1)
Dew Point10°C (77% RH)
AAT13.0°C
QNH1022 hPa
Density Alt817 ft
Elevation866 ft
Report Wrong Elevation
Raw Report
METAR LFJL 172300Z AUTO 20003KT CAVOK 14/10 Q1022 NOSIG=

Extra information for LFJL:More info

Metar Taf Metar & Taf Last 4 Metars F.Rules Stats Wind Profile Meteogram Temp Stats Airport Information Weather charts Add Link Nearby VenuesMetar ALERT Operation Metar Decoded Social comments